createdAt,value
2018-02-17T00:00:13.015Z,58.00
2018-02-17T00:02:41.639Z,58.00
2018-02-17T00:05:09.537Z,58.00
2018-02-17T00:07:37.465Z,57.90
2018-02-17T00:10:05.380Z,57.90
2018-02-17T00:12:33.365Z,57.90
2018-02-17T00:15:01.287Z,57.90
2018-02-17T00:17:29.236Z,57.90
2018-02-17T00:19:57.153Z,57.90
2018-02-17T00:22:25.047Z,58.00
2018-02-17T00:24:52.980Z,58.00
2018-02-17T00:27:20.883Z,58.00
2018-02-17T00:29:48.859Z,58.00
2018-02-17T00:32:16.851Z,58.00
2018-02-17T00:34:44.820Z,58.00
2018-02-17T00:37:13.590Z,58.00
2018-02-17T00:39:41.560Z,57.90
2018-02-17T00:42:09.528Z,57.90
2018-02-17T00:44:37.461Z,58.00
2018-02-17T00:47:05.397Z,58.00
2018-02-17T00:49:33.326Z,58.00
2018-02-17T00:52:01.304Z,58.10
2018-02-17T00:54:29.172Z,58.00
2018-02-17T00:56:57.071Z,58.10
2018-02-17T00:59:25.750Z,58.20
2018-02-17T01:01:54.472Z,58.20
2018-02-17T01:04:22.392Z,58.20
2018-02-17T01:06:50.354Z,58.20
2018-02-17T01:09:18.316Z,58.20
2018-02-17T01:11:46.217Z,58.20
2018-02-17T01:14:14.885Z,58.20
2018-02-17T01:16:42.878Z,58.20
2018-02-17T01:19:10.775Z,58.20
2018-02-17T01:21:38.674Z,58.20
2018-02-17T01:24:06.662Z,58.20
2018-02-17T01:26:34.575Z,58.30
2018-02-17T01:29:02.477Z,58.30
2018-02-17T01:31:30.439Z,58.30
2018-02-17T01:33:58.314Z,58.30
2018-02-17T01:36:26.240Z,58.30
2018-02-17T01:38:54.225Z,58.20
2018-02-17T01:41:22.100Z,58.30
2018-02-17T01:43:50.022Z,58.30
2018-02-17T01:46:18.850Z,58.30
2018-02-17T01:48:46.770Z,58.30
2018-02-17T01:51:15.536Z,58.40
2018-02-17T01:53:43.510Z,58.40
2018-02-17T01:56:11.468Z,58.40
2018-02-17T01:58:39.427Z,58.50
2018-02-17T02:01:07.418Z,58.50
2018-02-17T02:03:35.388Z,58.50
2018-02-17T02:06:03.366Z,58.60
2018-02-17T02:08:31.346Z,58.70
2018-02-17T02:11:00.076Z,58.70
2018-02-17T02:13:28.024Z,58.70
2018-02-17T02:15:55.925Z,58.80
2018-02-17T02:18:23.855Z,58.80
2018-02-17T02:20:51.819Z,58.80
2018-02-17T02:23:20.490Z,58.90
2018-02-17T02:25:48.411Z,58.90
2018-02-17T02:28:16.313Z,59.00
2018-02-17T02:30:44.206Z,59.00
2018-02-17T02:33:12.906Z,59.00
2018-02-17T02:35:40.860Z,59.00
2018-02-17T02:38:09.540Z,59.10
2018-02-17T02:40:38.257Z,59.00
2018-02-17T02:43:06.148Z,59.10
2018-02-17T02:45:34.047Z,59.10
2018-02-17T02:48:01.947Z,59.70
2018-02-17T02:50:29.837Z,59.00
2018-02-17T02:52:57.761Z,59.00
2018-02-17T02:55:25.683Z,59.00
2018-02-17T02:57:53.590Z,59.00
2018-02-17T03:00:21.572Z,59.00
2018-02-17T03:02:50.332Z,58.90
2018-02-17T03:05:18.287Z,58.90
2018-02-17T03:07:46.264Z,59.00
2018-02-17T03:10:14.243Z,59.00
2018-02-17T03:12:42.123Z,59.00
2018-02-17T03:15:10.833Z,59.10
2018-02-17T03:17:38.821Z,59.10
2018-02-17T03:20:06.791Z,59.10
2018-02-17T03:22:34.756Z,59.00
2018-02-17T03:25:02.640Z,59.00
2018-02-17T03:27:30.657Z,58.90
2018-02-17T03:29:59.376Z,59.00
2018-02-17T03:32:27.404Z,59.00
2018-02-17T03:34:55.321Z,59.00
2018-02-17T03:37:23.248Z,59.10
2018-02-17T03:39:51.918Z,59.00
2018-02-17T03:42:19.821Z,59.50
2018-02-17T03:44:47.721Z,58.90
2018-02-17T03:47:15.723Z,59.00
2018-02-17T03:49:43.627Z,59.00
2018-02-17T03:52:11.544Z,59.00
2018-02-17T03:54:39.456Z,59.00
2018-02-17T03:57:07.350Z,59.00
2018-02-17T03:59:35.244Z,59.00
2018-02-17T04:02:03.127Z,59.10
2018-02-17T04:04:30.991Z,59.20
2018-02-17T04:06:58.995Z,59.20
2018-02-17T04:09:26.902Z,59.30
2018-02-17T04:11:54.778Z,59.20
2018-02-17T04:14:22.735Z,59.30
2018-02-17T04:16:50.711Z,59.40
2018-02-17T04:19:18.676Z,59.40
2018-02-17T04:21:46.663Z,59.50
2018-02-17T04:24:14.599Z,59.50
2018-02-17T04:26:42.485Z,59.50
2018-02-17T04:29:10.404Z,59.60
2018-02-17T04:31:38.329Z,59.60
2018-02-17T04:34:06.200Z,59.70
2018-02-17T04:36:34.105Z,59.70
2018-02-17T04:39:02.144Z,59.70
2018-02-17T04:41:33.067Z,59.70
2018-02-17T04:47:13.034Z,59.80
2018-02-17T04:49:42.978Z,59.90
2018-02-17T04:52:16.263Z,59.90
2018-02-17T04:55:01.982Z,59.90
2018-02-17T04:57:29.940Z,60.00
2018-02-17T04:59:58.627Z,59.90
2018-02-17T05:02:42.152Z,60.00
2018-02-17T05:05:19.650Z,59.90
2018-02-17T05:07:53.132Z,59.90
2018-02-17T05:10:21.919Z,60.00
2018-02-17T05:12:50.730Z,60.00
2018-02-17T05:15:19.624Z,60.00
2018-02-17T05:17:53.290Z,60.00
2018-02-17T05:20:26.874Z,60.00
2018-02-17T05:23:11.547Z,60.00
2018-02-17T05:25:54.255Z,60.00
2018-02-17T05:28:22.290Z,60.00
2018-02-17T05:30:50.297Z,60.10
2018-02-17T05:33:19.094Z,60.10
2018-02-17T05:35:52.930Z,60.20
2018-02-17T05:38:20.970Z,60.20
2018-02-17T05:40:50.368Z,60.50
2018-02-17T05:43:18.392Z,60.50
2018-02-17T05:45:46.341Z,60.50
2018-02-17T05:48:15.225Z,60.40
2018-02-17T05:50:43.194Z,60.40
2018-02-17T05:53:11.090Z,60.40
2018-02-17T05:55:38.994Z,60.50
2018-02-17T05:58:07.000Z,60.50
2018-02-17T06:00:34.876Z,60.60
2018-02-17T06:03:02.844Z,60.50
2018-02-17T06:05:30.849Z,60.60
2018-02-17T06:07:58.910Z,60.70
2018-02-17T06:10:26.820Z,60.70
2018-02-17T06:12:55.471Z,60.80
2018-02-17T06:15:23.373Z,60.70
2018-02-17T06:17:52.112Z,60.80
2018-02-17T06:20:20.013Z,60.80
2018-02-17T06:22:47.884Z,60.90
2018-02-17T06:25:16.593Z,60.80
2018-02-17T06:27:44.520Z,60.80
2018-02-17T06:30:12.563Z,60.80
2018-02-17T06:32:40.536Z,60.90
2018-02-17T06:35:08.423Z,61.00
2018-02-17T06:37:36.299Z,60.90
2018-02-17T06:40:04.256Z,61.10
2018-02-17T06:42:32.147Z,61.10
2018-02-17T06:45:00.883Z,61.20
2018-02-17T06:47:28.790Z,61.20
2018-02-17T06:49:56.707Z,61.20
2018-02-17T06:52:24.611Z,61.20
2018-02-17T06:54:52.537Z,61.30
2018-02-17T06:57:20.412Z,61.30
2018-02-17T06:59:48.460Z,61.40
2018-02-17T07:02:16.398Z,61.40
2018-02-17T07:04:44.294Z,61.50
2018-02-17T07:07:12.194Z,61.40
2018-02-17T07:09:40.292Z,61.50
2018-02-17T07:12:08.234Z,61.50
2018-02-17T07:14:36.197Z,61.60
2018-02-17T07:17:04.153Z,61.50
2018-02-17T07:19:32.032Z,61.50
2018-02-17T07:22:00.079Z,61.50
2018-02-17T07:24:28.024Z,61.50
2018-02-17T07:26:56.701Z,61.60
2018-02-17T07:29:25.391Z,61.60
2018-02-17T07:31:54.051Z,61.60
2018-02-17T07:34:21.950Z,61.60
2018-02-17T07:36:50.632Z,61.50
2018-02-17T07:39:19.382Z,61.50
2018-02-17T07:41:47.310Z,61.50
2018-02-17T07:44:15.274Z,61.50
2018-02-17T07:46:43.246Z,61.50
2018-02-17T07:49:11.134Z,61.40
2018-02-17T07:51:39.055Z,61.30
2018-02-17T07:54:07.757Z,62.20
2018-02-17T07:56:35.717Z,61.50
2018-02-17T07:59:04.396Z,61.30
2018-02-17T08:01:33.125Z,61.40
2018-02-17T08:04:01.023Z,61.30
2018-02-17T08:06:28.991Z,61.30
2018-02-17T08:08:57.016Z,61.30
2018-02-17T08:11:24.936Z,61.40
2018-02-17T08:13:52.901Z,61.50
2018-02-17T08:16:20.813Z,61.50
2018-02-17T08:18:48.779Z,61.50
2018-02-17T08:21:17.413Z,62.00
2018-02-17T08:23:45.399Z,61.30
2018-02-17T08:26:14.233Z,61.30
2018-02-17T08:28:42.157Z,61.40
2018-02-17T08:31:10.152Z,61.40
2018-02-17T08:33:38.814Z,61.40
2018-02-17T08:36:06.722Z,61.40
2018-02-17T08:38:34.634Z,61.30
2018-02-17T08:41:02.616Z,61.30
2018-02-17T08:43:30.596Z,61.20
2018-02-17T08:45:59.281Z,61.40
2018-02-17T08:48:27.157Z,61.20
2018-02-17T08:50:56.096Z,61.50
2018-02-17T08:53:24.058Z,61.40
2018-02-17T08:55:53.658Z,61.40
2018-02-17T08:58:21.716Z,61.30
2018-02-17T09:00:49.602Z,61.20
2018-02-17T09:03:17.587Z,61.10
2018-02-17T09:05:45.649Z,61.00
2018-02-17T09:08:13.711Z,60.90
2018-02-17T09:10:47.466Z,60.70
2018-02-17T09:13:15.346Z,60.50
2018-02-17T09:15:43.994Z,60.30
2018-02-17T09:18:11.887Z,60.30
2018-02-17T09:20:39.880Z,60.00
2018-02-17T09:23:07.762Z,59.90
2018-02-17T09:25:35.682Z,59.90
2018-02-17T09:28:03.690Z,59.70
2018-02-17T09:30:31.710Z,59.60
2018-02-17T09:32:59.595Z,59.50
2018-02-17T09:35:27.482Z,59.30
2018-02-17T09:37:55.443Z,59.30
2018-02-17T09:40:24.115Z,59.10
2018-02-17T09:42:52.015Z,59.20
2018-02-17T09:45:19.942Z,59.00
2018-02-17T09:47:47.885Z,59.00
2018-02-17T09:50:15.867Z,58.90
2018-02-17T09:52:43.841Z,58.90
2018-02-17T09:55:11.727Z,58.70
2018-02-17T09:57:41.196Z,58.40
2018-02-17T10:00:09.169Z,58.40
2018-02-17T10:02:37.051Z,58.30
2018-02-17T10:05:04.987Z,58.10
2018-02-17T10:07:32.935Z,58.00
2018-02-17T10:10:01.369Z,56.80
2018-02-17T10:12:30.519Z,56.60
2018-02-17T10:14:58.396Z,56.40
2018-02-17T10:17:26.393Z,56.20
2018-02-17T10:19:54.371Z,56.10
2018-02-17T10:22:22.337Z,56.00
2018-02-17T10:24:50.335Z,55.70
2018-02-17T10:27:18.257Z,56.10
2018-02-17T10:29:46.152Z,55.40
2018-02-17T10:32:14.824Z,55.30
2018-02-17T10:34:43.244Z,55.30
2018-02-17T10:37:11.296Z,55.10
2018-02-17T10:39:40.008Z,54.90
2018-02-17T10:42:07.942Z,54.90
2018-02-17T10:44:36.677Z,54.60
2018-02-17T10:47:04.563Z,54.60
2018-02-17T10:49:32.544Z,54.60
2018-02-17T10:52:00.435Z,54.60
2018-02-17T10:54:28.435Z,54.40
2018-02-17T10:56:56.352Z,54.10
2018-02-17T10:59:24.347Z,54.00
2018-02-17T11:01:52.988Z,54.00
2018-02-17T11:04:21.685Z,53.90
2018-02-17T11:06:49.724Z,53.90
2018-02-17T11:09:17.667Z,53.80
2018-02-17T11:11:45.559Z,53.70
2018-02-17T11:14:13.506Z,53.50
2018-02-17T11:16:41.392Z,53.40
2018-02-17T11:19:09.327Z,53.30
2018-02-17T11:21:38.167Z,53.00
2018-02-17T11:24:06.163Z,53.00
2018-02-17T11:26:34.135Z,53.00
2018-02-17T11:29:02.108Z,52.90
2018-02-17T11:31:30.870Z,52.90
2018-02-17T11:33:58.930Z,52.80
2018-02-17T11:36:26.839Z,52.70
2018-02-17T11:38:54.793Z,52.70
2018-02-17T11:41:22.694Z,52.80
2018-02-17T11:43:50.596Z,52.80
2018-02-17T11:46:18.572Z,52.80
2018-02-17T11:48:46.547Z,52.70
2018-02-17T11:51:14.522Z,52.50
2018-02-17T11:53:42.486Z,52.50
2018-02-17T11:56:10.475Z,52.60
2018-02-17T11:58:38.445Z,52.50
2018-02-17T12:01:06.336Z,52.40
2018-02-17T12:03:34.411Z,52.40
2018-02-17T12:06:02.352Z,52.50
2018-02-17T12:08:30.266Z,52.90
2018-02-17T12:10:58.221Z,52.80
2018-02-17T12:13:26.198Z,52.40
2018-02-17T12:15:54.168Z,52.40
2018-02-17T12:18:22.129Z,52.40
2018-02-17T12:20:50.075Z,52.50
2018-02-17T12:23:18.785Z,52.60
2018-02-17T12:25:47.399Z,52.70
2018-02-17T12:28:15.349Z,53.40
2018-02-17T12:30:43.323Z,53.40
2018-02-17T12:33:11.215Z,53.40
2018-02-17T12:35:39.181Z,53.40
2018-02-17T12:38:07.071Z,52.50
2018-02-17T12:40:35.001Z,52.40
2018-02-17T12:43:02.987Z,53.10
2018-02-17T12:45:30.973Z,53.00
2018-02-17T12:47:58.892Z,52.90
2018-02-17T12:50:26.798Z,53.00
2018-02-17T12:52:54.698Z,52.90
2018-02-17T12:55:23.432Z,52.70
2018-02-17T12:57:51.411Z,52.70
2018-02-17T13:00:19.311Z,52.40
2018-02-17T13:02:47.425Z,52.30
2018-02-17T13:05:15.330Z,52.30
2018-02-17T13:07:43.333Z,52.40
2018-02-17T13:10:12.100Z,52.30
2018-02-17T13:12:40.174Z,52.20
2018-02-17T13:15:08.086Z,52.10
2018-02-17T13:17:36.411Z,52.00
2018-02-17T13:20:04.447Z,52.00
2018-02-17T13:22:32.344Z,52.00
2018-02-17T13:25:00.285Z,52.10
2018-02-17T13:27:28.184Z,52.20
2018-02-17T13:29:56.110Z,52.30
2018-02-17T13:32:24.025Z,52.30
2018-02-17T13:34:52.016Z,52.30
2018-02-17T13:37:19.987Z,53.10
2018-02-17T13:39:48.750Z,52.80
2018-02-17T13:42:16.763Z,52.70
2018-02-17T13:44:44.682Z,52.70
2018-02-17T13:47:12.637Z,52.70
2018-02-17T13:49:40.607Z,52.70
2018-02-17T13:52:08.615Z,52.70
2018-02-17T13:54:37.348Z,52.60
2018-02-17T13:57:05.285Z,52.60
2018-02-17T13:59:33.209Z,51.70
2018-02-17T14:02:01.229Z,51.60
2018-02-17T14:04:29.223Z,51.50
2018-02-17T14:06:57.208Z,51.50
2018-02-17T14:09:25.344Z,51.40
2018-02-17T14:11:53.291Z,51.20
2018-02-17T14:14:21.351Z,51.10
2018-02-17T14:16:50.132Z,51.10
2018-02-17T14:19:18.895Z,51.00
2018-02-17T14:21:46.877Z,51.00
2018-02-17T14:24:14.892Z,50.80
2018-02-17T14:26:42.883Z,50.70
2018-02-17T14:29:10.870Z,50.70
2018-02-17T14:31:38.879Z,50.70
2018-02-17T14:34:07.558Z,50.70
2018-02-17T14:36:36.310Z,50.80
2018-02-17T14:39:04.443Z,50.70
2018-02-17T14:41:32.366Z,50.70
2018-02-17T14:44:00.294Z,50.70
2018-02-17T14:46:28.180Z,50.80
2018-02-17T14:48:56.267Z,50.80
2018-02-17T14:51:24.249Z,50.50
2018-02-17T14:53:52.171Z,50.30
2018-02-17T14:56:20.118Z,50.20
2018-02-17T14:58:48.088Z,50.10
2018-02-17T15:01:15.995Z,50.90
2018-02-17T15:03:43.973Z,51.00
2018-02-17T15:06:11.902Z,50.20
2018-02-17T15:08:39.835Z,50.20
2018-02-17T15:11:08.583Z,51.10
2018-02-17T15:13:36.555Z,51.10
2018-02-17T15:16:04.487Z,51.00
2018-02-17T15:18:34.449Z,51.00
2018-02-17T15:21:02.409Z,51.10
2018-02-17T15:23:30.364Z,51.10
2018-02-17T15:25:58.239Z,51.20
2018-02-17T15:28:26.214Z,51.10
2018-02-17T15:30:54.889Z,51.10
2018-02-17T15:33:22.853Z,51.10
2018-02-17T15:35:50.748Z,51.10
2018-02-17T15:38:18.726Z,51.10
2018-02-17T15:40:46.712Z,51.10
2018-02-17T15:43:15.413Z,51.30
2018-02-17T15:45:43.416Z,51.30
2018-02-17T15:48:11.342Z,51.30
2018-02-17T15:50:39.306Z,51.40
2018-02-17T15:53:08.071Z,51.60
2018-02-17T15:55:36.067Z,51.50
2018-02-17T15:59:28.596Z,51.80
2018-02-17T16:01:56.864Z,52.40
2018-02-17T16:04:25.055Z,52.10
2018-02-17T16:06:53.938Z,52.10
2018-02-17T16:09:22.928Z,52.10
2018-02-17T16:11:51.195Z,52.20
2018-02-17T16:14:19.857Z,52.20
2018-02-17T16:16:48.051Z,52.20
2018-02-17T16:19:16.232Z,52.30
2018-02-17T16:21:46.474Z,52.20
2018-02-17T16:24:16.437Z,52.20
2018-02-17T16:26:46.977Z,52.50
2018-02-17T16:29:15.888Z,52.50
2018-02-17T16:31:44.068Z,52.50
2018-02-17T16:34:12.235Z,52.60
2018-02-17T16:36:40.313Z,52.60
2018-02-17T16:39:08.375Z,52.60
2018-02-17T16:41:37.071Z,52.70
2018-02-17T16:44:05.345Z,52.60
2018-02-17T16:46:33.508Z,52.70
2018-02-17T16:49:01.978Z,52.70
2018-02-17T16:51:30.165Z,52.60
2018-02-17T16:53:58.436Z,52.60
2018-02-17T16:56:26.623Z,52.70
2018-02-17T16:58:54.899Z,52.80
2018-02-17T17:01:23.061Z,52.80
2018-02-17T17:03:51.749Z,53.40
2018-02-17T17:06:19.933Z,53.00
2018-02-17T17:08:48.105Z,53.00
2018-02-17T17:11:18.793Z,52.60
2018-02-17T17:13:46.898Z,53.00
2018-02-17T17:16:15.076Z,53.30
2018-02-17T17:18:43.005Z,53.10
2018-02-17T17:21:11.221Z,53.20
2018-02-17T17:23:39.391Z,53.30
2018-02-17T17:26:07.562Z,53.30
2018-02-17T17:28:35.747Z,53.40
2018-02-17T17:31:03.908Z,53.30
2018-02-17T17:33:32.196Z,53.40
2018-02-17T17:36:00.357Z,53.50
2018-02-17T17:38:28.433Z,53.40
2018-02-17T17:40:56.716Z,53.40
2018-02-17T17:43:24.883Z,53.30
2018-02-17T17:45:53.052Z,53.40
2018-02-17T17:48:21.239Z,53.40
2018-02-17T17:50:49.513Z,53.40
2018-02-17T17:53:17.678Z,53.50
2018-02-17T17:55:45.826Z,54.00
2018-02-17T17:58:13.922Z,53.70
2018-02-17T18:00:42.147Z,53.70
2018-02-17T18:03:10.267Z,53.80
2018-02-17T18:05:38.445Z,54.00
2018-02-17T18:08:06.511Z,53.80
2018-02-17T18:10:34.800Z,54.00
2018-02-17T18:13:02.919Z,54.10
2018-02-17T18:15:31.043Z,54.10
2018-02-17T18:17:59.934Z,54.10
2018-02-17T18:20:27.993Z,54.10
2018-02-17T18:22:56.068Z,54.00
2018-02-17T18:25:24.240Z,54.00
2018-02-17T18:27:52.206Z,54.00
2018-02-17T18:30:20.394Z,53.90
2018-02-17T18:32:48.668Z,54.00
2018-02-17T18:35:17.243Z,53.50
2018-02-17T18:37:45.418Z,53.90
2018-02-17T18:40:13.598Z,53.90
2018-02-17T18:42:41.764Z,53.90
2018-02-17T18:45:11.849Z,54.00
2018-02-17T18:47:39.851Z,54.00
2018-02-17T18:50:08.135Z,54.00
2018-02-17T18:52:37.833Z,54.00
2018-02-17T18:55:05.915Z,54.00
2018-02-17T18:57:34.083Z,54.00
2018-02-17T19:00:02.367Z,53.90
2018-02-17T19:02:30.539Z,54.00
2018-02-17T19:04:58.705Z,54.30
2018-02-17T19:07:26.886Z,54.10
2018-02-17T19:09:55.047Z,54.00
2018-02-17T19:12:23.118Z,54.70
2018-02-17T19:14:51.190Z,54.10
2018-02-17T19:17:19.261Z,54.20
2018-02-17T19:19:47.441Z,54.20
2018-02-17T19:22:16.223Z,54.30
2018-02-17T19:24:44.297Z,54.30
2018-02-17T19:27:12.472Z,54.40
2018-02-17T19:29:40.644Z,54.40
2018-02-17T19:32:10.362Z,54.50
2018-02-17T19:34:38.471Z,54.50
2018-02-17T19:37:06.710Z,54.50
2018-02-17T19:39:34.884Z,54.50
2018-02-17T19:42:04.592Z,54.70
2018-02-17T19:44:32.760Z,54.70
2018-02-17T19:47:00.812Z,54.70
2018-02-17T19:49:28.998Z,54.80
2018-02-17T19:51:57.074Z,54.80
2018-02-17T19:54:25.256Z,54.90
2018-02-17T19:56:53.316Z,54.90
2018-02-17T19:59:21.500Z,54.90
2018-02-17T20:01:49.672Z,55.00
2018-02-17T20:04:17.735Z,55.00
2018-02-17T20:06:45.909Z,55.10
2018-02-17T20:09:13.875Z,55.20
2018-02-17T20:11:41.949Z,55.30
2018-02-17T20:14:10.087Z,55.40
2018-02-17T20:16:38.305Z,55.40
2018-02-17T20:19:06.364Z,55.50
2018-02-17T20:21:34.549Z,55.50
2018-02-17T20:24:02.716Z,55.50
2018-02-17T20:26:31.000Z,55.70
2018-02-17T20:28:59.161Z,55.70
2018-02-17T20:31:27.235Z,55.80
2018-02-17T20:33:56.020Z,55.80
2018-02-17T20:36:24.194Z,55.90
2018-02-17T20:38:52.265Z,55.90
2018-02-17T20:41:20.340Z,56.00
2018-02-17T20:43:48.521Z,56.00
2018-02-17T20:46:16.695Z,56.10
2018-02-17T20:48:44.860Z,56.20
2018-02-17T20:51:13.042Z,56.20
2018-02-17T20:53:41.101Z,56.20
2018-02-17T20:56:09.077Z,56.30
2018-02-17T20:58:37.144Z,56.30
2018-02-17T21:01:05.840Z,56.40
2018-02-17T21:03:34.719Z,56.50
2018-02-17T21:06:03.005Z,56.50
2018-02-17T21:08:31.171Z,56.60
2018-02-17T21:11:00.059Z,56.60
2018-02-17T21:13:28.235Z,56.70
2018-02-17T21:15:56.304Z,56.80
2018-02-17T21:18:24.378Z,56.90
2018-02-17T21:20:52.545Z,57.00
2018-02-17T21:23:20.734Z,57.10
2018-02-17T21:25:50.411Z,57.10
2018-02-17T21:28:18.512Z,57.20
2018-02-17T21:30:46.788Z,57.30
2018-02-17T21:33:15.576Z,57.30
2018-02-17T21:35:43.748Z,57.30
2018-02-17T21:38:11.921Z,57.40
2018-02-17T21:40:40.597Z,57.40
2018-02-17T21:43:08.781Z,57.40
2018-02-17T21:45:37.058Z,57.50
2018-02-17T21:48:05.333Z,57.60
2018-02-17T21:50:33.393Z,57.60
2018-02-17T21:53:01.571Z,57.70
2018-02-17T21:55:29.846Z,57.70
2018-02-17T21:57:57.812Z,57.80
2018-02-17T22:00:27.323Z,58.00
2018-02-17T22:02:55.491Z,58.00
2018-02-17T22:05:23.665Z,58.00
2018-02-17T22:07:51.630Z,58.00
2018-02-17T22:10:19.600Z,58.00
2018-02-17T22:12:54.431Z,58.10
2018-02-17T22:15:23.218Z,58.20
2018-02-17T22:17:52.213Z,58.20
2018-02-17T22:20:20.396Z,58.30
2018-02-17T22:22:49.072Z,58.30
2018-02-17T22:25:18.062Z,58.40
2018-02-17T22:27:46.133Z,58.40
2018-02-17T22:30:14.312Z,58.40
2018-02-17T22:32:42.485Z,58.40
2018-02-17T22:35:11.280Z,58.60
2018-02-17T22:37:39.454Z,58.60
2018-02-17T22:40:07.514Z,58.60
2018-02-17T22:42:35.695Z,58.60
2018-02-17T22:45:03.757Z,58.70
2018-02-17T22:47:31.842Z,58.80
2018-02-17T22:50:00.005Z,58.80
2018-02-17T22:52:28.084Z,58.90
2018-02-17T22:54:56.147Z,59.00
2018-02-17T22:57:24.174Z,59.00
2018-02-17T22:59:52.290Z,59.00
2018-02-17T23:02:20.256Z,59.00
2018-02-17T23:04:48.338Z,59.10
2018-02-17T23:07:16.399Z,59.10
2018-02-17T23:09:44.471Z,59.10
2018-02-17T23:12:12.649Z,59.10
2018-02-17T23:14:43.200Z,59.10
2018-02-17T23:17:12.815Z,59.30
2018-02-17T23:19:41.705Z,59.30
2018-02-17T23:22:09.957Z,59.40
2018-02-17T23:24:38.231Z,59.30
2018-02-17T23:27:07.117Z,59.50
2018-02-17T23:29:36.084Z,59.50
2018-02-17T23:32:04.181Z,59.50
2018-02-17T23:34:32.362Z,59.60
2018-02-17T23:37:00.256Z,59.60
2018-02-17T23:39:28.947Z,59.70
2018-02-17T23:41:59.153Z,59.70
2018-02-17T23:44:27.914Z,59.70
2018-02-17T23:46:55.993Z,59.80
2018-02-17T23:49:24.166Z,59.70
2018-02-17T23:51:53.785Z,59.80
2018-02-17T23:54:22.664Z,59.80
2018-02-17T23:56:50.828Z,59.70
2018-02-17T23:59:19.010Z,59.70
